sensor_id;sensor_type;location;lat;lon;timestamp;P1;durP1;ratioP1;P2;durP2;ratioP2
173;SDS011;75;48.784;9.364;2022-09-09T00:02:19;5.07;;;2.27;;
173;SDS011;75;48.784;9.364;2022-09-09T00:12:51;4.43;;;2.93;;
173;SDS011;75;48.784;9.364;2022-09-09T00:15:25;7.43;;;2.80;;
173;SDS011;75;48.784;9.364;2022-09-09T00:18:03;4.70;;;2.50;;
173;SDS011;75;48.784;9.364;2022-09-09T00:20:44;8.03;;;2.83;;
173;SDS011;75;48.784;9.364;2022-09-09T00:26:04;5.40;;;2.60;;
173;SDS011;75;48.784;9.364;2022-09-09T00:28:56;6.97;;;2.97;;
173;SDS011;75;48.784;9.364;2022-09-09T00:31:35;7.13;;;2.93;;
173;SDS011;75;48.784;9.364;2022-09-09T00:34:11;7.07;;;2.87;;
173;SDS011;75;48.784;9.364;2022-09-09T00:36:41;5.87;;;2.50;;
173;SDS011;75;48.784;9.364;2022-09-09T00:39:31;4.73;;;2.30;;
173;SDS011;75;48.784;9.364;2022-09-09T00:44:53;3.63;;;2.40;;
173;SDS011;75;48.784;9.364;2022-09-09T00:47:52;7.10;;;3.00;;
173;SDS011;75;48.784;9.364;2022-09-09T00:50:43;5.20;;;2.70;;
173;SDS011;75;48.784;9.364;2022-09-09T00:56:20;8.20;;;2.60;;
173;SDS011;75;48.784;9.364;2022-09-09T00:58:57;6.17;;;2.57;;
173;SDS011;75;48.784;9.364;2022-09-09T01:01:42;5.67;;;2.80;;
173;SDS011;75;48.784;9.364;2022-09-09T01:04:09;4.70;;;2.70;;
173;SDS011;75;48.784;9.364;2022-09-09T01:06:41;7.33;;;2.87;;
173;SDS011;75;48.784;9.364;2022-09-09T01:17:22;7.73;;;2.43;;
173;SDS011;75;48.784;9.364;2022-09-09T01:28:32;4.33;;;2.50;;
173;SDS011;75;48.784;9.364;2022-09-09T01:31:02;8.37;;;2.50;;
173;SDS011;75;48.784;9.364;2022-09-09T01:33:31;5.63;;;2.83;;
173;SDS011;75;48.784;9.364;2022-09-09T01:35:57;4.73;;;2.80;;
173;SDS011;75;48.784;9.364;2022-09-09T01:38:32;4.80;;;2.50;;
173;SDS011;75;48.784;9.364;2022-09-09T01:40:59;7.10;;;2.67;;
173;SDS011;75;48.784;9.364;2022-09-09T01:43:25;4.63;;;2.40;;
173;SDS011;75;48.784;9.364;2022-09-09T01:45:53;8.93;;;2.77;;
173;SDS011;75;48.784;9.364;2022-09-09T01:48:24;5.67;;;2.37;;
173;SDS011;75;48.784;9.364;2022-09-09T01:50:50;4.10;;;2.30;;
173;SDS011;75;48.784;9.364;2022-09-09T01:53:17;4.63;;;2.70;;
173;SDS011;75;48.784;9.364;2022-09-09T01:56:07;5.57;;;2.40;;
173;SDS011;75;48.784;9.364;2022-09-09T02:03:56;4.60;;;2.50;;
173;SDS011;75;48.784;9.364;2022-09-09T02:06:30;5.60;;;2.63;;
173;SDS011;75;48.784;9.364;2022-09-09T02:09:01;5.07;;;2.50;;
173;SDS011;75;48.784;9.364;2022-09-09T02:11:29;5.17;;;2.40;;
173;SDS011;75;48.784;9.364;2022-09-09T02:14:04;6.40;;;2.50;;
173;SDS011;75;48.784;9.364;2022-09-09T02:16:43;4.50;;;2.60;;
173;SDS011;75;48.784;9.364;2022-09-09T02:19:23;3.33;;;2.27;;
173;SDS011;75;48.784;9.364;2022-09-09T02:21:56;4.00;;;2.40;;
173;SDS011;75;48.784;9.364;2022-09-09T02:24:24;4.97;;;2.33;;
173;SDS011;75;48.784;9.364;2022-09-09T02:26:52;8.23;;;2.60;;
173;SDS011;75;48.784;9.364;2022-09-09T02:29:29;6.20;;;2.43;;
173;SDS011;75;48.784;9.364;2022-09-09T02:32:00;4.57;;;2.60;;
173;SDS011;75;48.784;9.364;2022-09-09T02:34:29;5.90;;;2.73;;
173;SDS011;75;48.784;9.364;2022-09-09T02:36:59;5.43;;;2.57;;
173;SDS011;75;48.784;9.364;2022-09-09T02:39:27;5.43;;;2.80;;
173;SDS011;75;48.784;9.364;2022-09-09T02:41:53;5.93;;;2.57;;
173;SDS011;75;48.784;9.364;2022-09-09T02:44:18;4.40;;;2.37;;
173;SDS011;75;48.784;9.364;2022-09-09T02:49:28;6.23;;;2.40;;
173;SDS011;75;48.784;9.364;2022-09-09T02:52:01;4.10;;;2.53;;
173;SDS011;75;48.784;9.364;2022-09-09T02:54:31;5.23;;;2.60;;
173;SDS011;75;48.784;9.364;2022-09-09T02:57:04;4.07;;;2.70;;
173;SDS011;75;48.784;9.364;2022-09-09T02:59:35;7.13;;;3.60;;
173;SDS011;75;48.784;9.364;2022-09-09T03:02:01;13.00;;;4.93;;
173;SDS011;75;48.784;9.364;2022-09-09T03:04:26;8.33;;;4.33;;
173;SDS011;75;48.784;9.364;2022-09-09T03:06:52;5.33;;;3.07;;
173;SDS011;75;48.784;9.364;2022-09-09T03:09:18;5.60;;;3.10;;
173;SDS011;75;48.784;9.364;2022-09-09T03:11:44;9.00;;;3.40;;
173;SDS011;75;48.784;9.364;2022-09-09T03:14:10;7.13;;;2.90;;
173;SDS011;75;48.784;9.364;2022-09-09T03:16:36;4.00;;;2.67;;
173;SDS011;75;48.784;9.364;2022-09-09T03:19:02;4.63;;;2.60;;
173;SDS011;75;48.784;9.364;2022-09-09T03:21:27;4.00;;;2.60;;
173;SDS011;75;48.784;9.364;2022-09-09T03:23:53;8.73;;;2.80;;
173;SDS011;75;48.784;9.364;2022-09-09T03:26:19;6.10;;;2.73;;
173;SDS011;75;48.784;9.364;2022-09-09T03:28:45;7.67;;;3.10;;
173;SDS011;75;48.784;9.364;2022-09-09T03:31:10;4.30;;;2.40;;
173;SDS011;75;48.784;9.364;2022-09-09T03:33:37;5.90;;;2.60;;
173;SDS011;75;48.784;9.364;2022-09-09T03:36:03;4.70;;;2.30;;
173;SDS011;75;48.784;9.364;2022-09-09T03:38:29;4.10;;;2.50;;
173;SDS011;75;48.784;9.364;2022-09-09T03:40:56;5.23;;;2.60;;
173;SDS011;75;48.784;9.364;2022-09-09T03:43:25;4.67;;;2.63;;
173;SDS011;75;48.784;9.364;2022-09-09T03:45:52;8.90;;;2.80;;
173;SDS011;75;48.784;9.364;2022-09-09T03:48:18;5.20;;;2.70;;
173;SDS011;75;48.784;9.364;2022-09-09T03:50:47;4.70;;;2.63;;
173;SDS011;75;48.784;9.364;2022-09-09T03:53:15;4.93;;;3.10;;
173;SDS011;75;48.784;9.364;2022-09-09T03:55:49;5.70;;;2.57;;
173;SDS011;75;48.784;9.364;2022-09-09T03:58:18;5.07;;;2.37;;
173;SDS011;75;48.784;9.364;2022-09-09T04:00:52;4.70;;;2.60;;
173;SDS011;75;48.784;9.364;2022-09-09T04:03:22;4.57;;;2.37;;
173;SDS011;75;48.784;9.364;2022-09-09T04:05:50;4.57;;;2.60;;
173;SDS011;75;48.784;9.364;2022-09-09T04:08:17;5.23;;;2.67;;
173;SDS011;75;48.784;9.364;2022-09-09T04:10:47;4.60;;;2.60;;
173;SDS011;75;48.784;9.364;2022-09-09T04:13:15;4.77;;;2.50;;
173;SDS011;75;48.784;9.364;2022-09-09T04:15:43;4.53;;;2.40;;
173;SDS011;75;48.784;9.364;2022-09-09T04:18:10;3.70;;;2.43;;
173;SDS011;75;48.784;9.364;2022-09-09T04:20:37;7.10;;;2.70;;
173;SDS011;75;48.784;9.364;2022-09-09T04:23:03;3.90;;;2.50;;
173;SDS011;75;48.784;9.364;2022-09-09T04:25:29;8.33;;;3.17;;
173;SDS011;75;48.784;9.364;2022-09-09T04:27:55;6.30;;;2.50;;
173;SDS011;75;48.784;9.364;2022-09-09T04:30:22;6.03;;;3.00;;
173;SDS011;75;48.784;9.364;2022-09-09T04:32:48;5.47;;;2.87;;
173;SDS011;75;48.784;9.364;2022-09-09T04:35:14;4.70;;;2.90;;
173;SDS011;75;48.784;9.364;2022-09-09T04:37:40;6.70;;;3.87;;
173;SDS011;75;48.784;9.364;2022-09-09T04:40:06;7.13;;;3.77;;
173;SDS011;75;48.784;9.364;2022-09-09T04:42:37;5.93;;;3.33;;
173;SDS011;75;48.784;9.364;2022-09-09T04:45:04;5.50;;;3.17;;
173;SDS011;75;48.784;9.364;2022-09-09T04:47:31;7.50;;;2.97;;
173;SDS011;75;48.784;9.364;2022-09-09T04:49:57;8.67;;;4.03;;
173;SDS011;75;48.784;9.364;2022-09-09T04:52:23;6.40;;;3.63;;
173;SDS011;75;48.784;9.364;2022-09-09T04:54:49;5.37;;;3.40;;
173;SDS011;75;48.784;9.364;2022-09-09T04:57:14;4.53;;;3.00;;
173;SDS011;75;48.784;9.364;2022-09-09T04:59:40;8.40;;;2.90;;
173;SDS011;75;48.784;9.364;2022-09-09T05:02:06;5.77;;;2.80;;
173;SDS011;75;48.784;9.364;2022-09-09T05:04:32;7.13;;;2.80;;
173;SDS011;75;48.784;9.364;2022-09-09T05:06:58;4.10;;;2.60;;
173;SDS011;75;48.784;9.364;2022-09-09T05:09:24;5.17;;;3.03;;
173;SDS011;75;48.784;9.364;2022-09-09T05:11:50;5.23;;;2.80;;
173;SDS011;75;48.784;9.364;2022-09-09T05:14:16;6.07;;;2.90;;
173;SDS011;75;48.784;9.364;2022-09-09T05:16:44;4.93;;;2.90;;
173;SDS011;75;48.784;9.364;2022-09-09T05:19:10;4.43;;;2.60;;
173;SDS011;75;48.784;9.364;2022-09-09T05:21:36;5.93;;;2.80;;
173;SDS011;75;48.784;9.364;2022-09-09T05:24:02;4.57;;;2.70;;
173;SDS011;75;48.784;9.364;2022-09-09T05:26:28;5.50;;;2.90;;
173;SDS011;75;48.784;9.364;2022-09-09T05:28:54;6.67;;;2.90;;
173;SDS011;75;48.784;9.364;2022-09-09T05:31:20;7.10;;;3.40;;
173;SDS011;75;48.784;9.364;2022-09-09T05:33:46;5.23;;;3.00;;
173;SDS011;75;48.784;9.364;2022-09-09T05:36:18;8.73;;;3.00;;
173;SDS011;75;48.784;9.364;2022-09-09T05:38:45;5.13;;;2.60;;
173;SDS011;75;48.784;9.364;2022-09-09T05:41:11;4.20;;;2.53;;
173;SDS011;75;48.784;9.364;2022-09-09T05:43:40;5.10;;;2.77;;
173;SDS011;75;48.784;9.364;2022-09-09T05:46:10;5.30;;;2.73;;
173;SDS011;75;48.784;9.364;2022-09-09T05:48:38;5.00;;;2.63;;
173;SDS011;75;48.784;9.364;2022-09-09T05:51:09;4.80;;;2.87;;
173;SDS011;75;48.784;9.364;2022-09-09T05:53:37;7.73;;;3.20;;
173;SDS011;75;48.784;9.364;2022-09-09T05:58:31;4.00;;;2.67;;
173;SDS011;75;48.784;9.364;2022-09-09T06:01:00;4.57;;;2.73;;
173;SDS011;75;48.784;9.364;2022-09-09T06:03:27;4.57;;;2.67;;
173;SDS011;75;48.784;9.364;2022-09-09T06:05:57;4.87;;;2.80;;
173;SDS011;75;48.784;9.364;2022-09-09T06:08:23;5.20;;;2.90;;
173;SDS011;75;48.784;9.364;2022-09-09T06:10:49;3.70;;;2.67;;
173;SDS011;75;48.784;9.364;2022-09-09T06:13:15;4.93;;;2.60;;
173;SDS011;75;48.784;9.364;2022-09-09T06:15:48;5.20;;;2.60;;
173;SDS011;75;48.784;9.364;2022-09-09T06:18:15;5.23;;;2.60;;
173;SDS011;75;48.784;9.364;2022-09-09T06:20:43;4.20;;;2.60;;
173;SDS011;75;48.784;9.364;2022-09-09T06:23:18;5.97;;;2.60;;
173;SDS011;75;48.784;9.364;2022-09-09T06:25:45;5.93;;;2.80;;
173;SDS011;75;48.784;9.364;2022-09-09T06:28:11;3.50;;;2.40;;
173;SDS011;75;48.784;9.364;2022-09-09T06:30:37;3.80;;;2.53;;
173;SDS011;75;48.784;9.364;2022-09-09T06:33:03;4.30;;;2.60;;
173;SDS011;75;48.784;9.364;2022-09-09T06:35:29;5.03;;;2.97;;
173;SDS011;75;48.784;9.364;2022-09-09T06:37:54;3.97;;;2.83;;
173;SDS011;75;48.784;9.364;2022-09-09T06:40:20;5.73;;;3.00;;
173;SDS011;75;48.784;9.364;2022-09-09T06:42:46;6.77;;;2.80;;
173;SDS011;75;48.784;9.364;2022-09-09T06:45:11;5.70;;;2.80;;
173;SDS011;75;48.784;9.364;2022-09-09T06:47:37;3.53;;;2.47;;
173;SDS011;75;48.784;9.364;2022-09-09T06:50:03;3.73;;;2.40;;
173;SDS011;75;48.784;9.364;2022-09-09T06:52:30;3.10;;;2.30;;
173;SDS011;75;48.784;9.364;2022-09-09T06:54:56;4.60;;;2.50;;
173;SDS011;75;48.784;9.364;2022-09-09T06:57:23;5.97;;;2.97;;
173;SDS011;75;48.784;9.364;2022-09-09T06:59:49;4.20;;;2.70;;
173;SDS011;75;48.784;9.364;2022-09-09T07:02:15;4.50;;;2.80;;
173;SDS011;75;48.784;9.364;2022-09-09T07:04:41;4.00;;;2.40;;
173;SDS011;75;48.784;9.364;2022-09-09T07:07:06;4.10;;;2.60;;
173;SDS011;75;48.784;9.364;2022-09-09T07:09:34;3.40;;;2.33;;
173;SDS011;75;48.784;9.364;2022-09-09T07:12:00;3.57;;;2.53;;
173;SDS011;75;48.784;9.364;2022-09-09T07:14:26;4.37;;;2.63;;
173;SDS011;75;48.784;9.364;2022-09-09T07:16:52;4.20;;;2.63;;
173;SDS011;75;48.784;9.364;2022-09-09T07:19:18;4.30;;;2.57;;
173;SDS011;75;48.784;9.364;2022-09-09T07:21:43;5.10;;;2.77;;
173;SDS011;75;48.784;9.364;2022-09-09T07:24:10;4.53;;;2.60;;
173;SDS011;75;48.784;9.364;2022-09-09T07:26:36;5.10;;;2.53;;
173;SDS011;75;48.784;9.364;2022-09-09T07:29:02;4.93;;;2.70;;
173;SDS011;75;48.784;9.364;2022-09-09T07:31:32;9.67;;;2.50;;
173;SDS011;75;48.784;9.364;2022-09-09T07:34:02;4.90;;;2.50;;
173;SDS011;75;48.784;9.364;2022-09-09T07:36:29;5.60;;;2.70;;
173;SDS011;75;48.784;9.364;2022-09-09T07:38:57;4.90;;;2.33;;
173;SDS011;75;48.784;9.364;2022-09-09T07:41:29;6.80;;;2.60;;
173;SDS011;75;48.784;9.364;2022-09-09T07:44:03;4.13;;;2.60;;
173;SDS011;75;48.784;9.364;2022-09-09T07:46:31;5.77;;;2.50;;
173;SDS011;75;48.784;9.364;2022-09-09T07:48:57;3.37;;;2.37;;
173;SDS011;75;48.784;9.364;2022-09-09T07:51:34;4.73;;;2.57;;
173;SDS011;75;48.784;9.364;2022-09-09T07:54:03;5.00;;;2.50;;
173;SDS011;75;48.784;9.364;2022-09-09T07:56:30;6.60;;;2.40;;
173;SDS011;75;48.784;9.364;2022-09-09T07:58:57;4.13;;;2.30;;
173;SDS011;75;48.784;9.364;2022-09-09T08:01:25;8.80;;;2.77;;
173;SDS011;75;48.784;9.364;2022-09-09T08:03:54;5.80;;;2.70;;
173;SDS011;75;48.784;9.364;2022-09-09T08:06:24;2.93;;;2.23;;
173;SDS011;75;48.784;9.364;2022-09-09T08:08:51;5.80;;;2.63;;
173;SDS011;75;48.784;9.364;2022-09-09T08:11:19;4.50;;;2.60;;
173;SDS011;75;48.784;9.364;2022-09-09T08:13:48;5.43;;;2.60;;
173;SDS011;75;48.784;9.364;2022-09-09T08:16:19;4.40;;;2.60;;
173;SDS011;75;48.784;9.364;2022-09-09T08:18:50;7.00;;;2.90;;
173;SDS011;75;48.784;9.364;2022-09-09T08:21:18;5.17;;;2.63;;
173;SDS011;75;48.784;9.364;2022-09-09T08:23:49;5.37;;;2.80;;
173;SDS011;75;48.784;9.364;2022-09-09T08:26:27;5.50;;;2.80;;
173;SDS011;75;48.784;9.364;2022-09-09T08:29:00;8.40;;;3.10;;
173;SDS011;75;48.784;9.364;2022-09-09T08:31:27;6.30;;;2.50;;
173;SDS011;75;48.784;9.364;2022-09-09T08:33:56;5.03;;;2.80;;
173;SDS011;75;48.784;9.364;2022-09-09T08:36:24;5.30;;;2.60;;
173;SDS011;75;48.784;9.364;2022-09-09T08:38:52;8.20;;;2.70;;
173;SDS011;75;48.784;9.364;2022-09-09T08:44:46;6.53;;;2.83;;
173;SDS011;75;48.784;9.364;2022-09-09T08:50:18;6.47;;;2.73;;
173;SDS011;75;48.784;9.364;2022-09-09T08:58:21;6.50;;;2.60;;
173;SDS011;75;48.784;9.364;2022-09-09T09:09:08;5.83;;;2.60;;
173;SDS011;75;48.784;9.364;2022-09-09T09:11:46;11.07;;;3.10;;
173;SDS011;75;48.784;9.364;2022-09-09T09:14:22;6.83;;;2.70;;
173;SDS011;75;48.784;9.364;2022-09-09T09:16:53;7.43;;;2.60;;
173;SDS011;75;48.784;9.364;2022-09-09T09:19:23;6.03;;;2.27;;
173;SDS011;75;48.784;9.364;2022-09-09T09:22:11;4.87;;;2.23;;
173;SDS011;75;48.784;9.364;2022-09-09T09:30:02;7.80;;;2.20;;
173;SDS011;75;48.784;9.364;2022-09-09T09:32:38;4.23;;;2.10;;
173;SDS011;75;48.784;9.364;2022-09-09T09:35:09;4.80;;;2.50;;
173;SDS011;75;48.784;9.364;2022-09-09T09:37:37;5.47;;;2.20;;
173;SDS011;75;48.784;9.364;2022-09-09T09:40:18;4.20;;;2.20;;
173;SDS011;75;48.784;9.364;2022-09-09T09:42:59;5.67;;;2.43;;
173;SDS011;75;48.784;9.364;2022-09-09T09:45:27;8.50;;;2.70;;
173;SDS011;75;48.784;9.364;2022-09-09T09:48:01;17.87;;;4.40;;
173;SDS011;75;48.784;9.364;2022-09-09T09:50:28;11.43;;;3.80;;
173;SDS011;75;48.784;9.364;2022-09-09T09:52:57;8.20;;;3.60;;
173;SDS011;75;48.784;9.364;2022-09-09T09:55:30;9.60;;;3.20;;
173;SDS011;75;48.784;9.364;2022-09-09T09:58:05;5.47;;;3.03;;
173;SDS011;75;48.784;9.364;2022-09-09T10:00:32;8.23;;;2.80;;
173;SDS011;75;48.784;9.364;2022-09-09T10:03:00;6.70;;;2.80;;
173;SDS011;75;48.784;9.364;2022-09-09T10:05:30;8.20;;;2.43;;
173;SDS011;75;48.784;9.364;2022-09-09T10:08:15;3.80;;;2.20;;
173;SDS011;75;48.784;9.364;2022-09-09T10:13:39;7.13;;;3.23;;
173;SDS011;75;48.784;9.364;2022-09-09T10:16:38;3.67;;;2.40;;
173;SDS011;75;48.784;9.364;2022-09-09T10:19:09;5.13;;;2.20;;
173;SDS011;75;48.784;9.364;2022-09-09T10:27:22;3.20;;;2.00;;
173;SDS011;75;48.784;9.364;2022-09-09T10:35:43;4.00;;;2.20;;
173;SDS011;75;48.784;9.364;2022-09-09T10:38:30;6.60;;;2.30;;
173;SDS011;75;48.784;9.364;2022-09-09T10:41:01;4.60;;;2.20;;
173;SDS011;75;48.784;9.364;2022-09-09T10:51:50;5.70;;;2.57;;
173;SDS011;75;48.784;9.364;2022-09-09T10:57:16;8.13;;;2.60;;
173;SDS011;75;48.784;9.364;2022-09-09T10:59:58;6.23;;;2.83;;
173;SDS011;75;48.784;9.364;2022-09-09T11:02:30;5.67;;;2.30;;
173;SDS011;75;48.784;9.364;2022-09-09T11:04:58;4.20;;;2.50;;
173;SDS011;75;48.784;9.364;2022-09-09T11:07:38;7.67;;;2.20;;
173;SDS011;75;48.784;9.364;2022-09-09T11:10:21;5.50;;;2.70;;
173;SDS011;75;48.784;9.364;2022-09-09T11:12:49;5.30;;;2.40;;
173;SDS011;75;48.784;9.364;2022-09-09T11:15:25;5.87;;;2.80;;
173;SDS011;75;48.784;9.364;2022-09-09T11:17:57;6.70;;;2.70;;
173;SDS011;75;48.784;9.364;2022-09-09T11:20:26;6.00;;;2.60;;
173;SDS011;75;48.784;9.364;2022-09-09T11:22:54;4.27;;;2.37;;
173;SDS011;75;48.784;9.364;2022-09-09T11:28:14;4.87;;;2.27;;
173;SDS011;75;48.784;9.364;2022-09-09T11:42:12;5.80;;;2.80;;
173;SDS011;75;48.784;9.364;2022-09-09T11:44:45;5.60;;;2.27;;
173;SDS011;75;48.784;9.364;2022-09-09T11:49:51;3.37;;;2.00;;
173;SDS011;75;48.784;9.364;2022-09-09T11:54:50;7.97;;;2.67;;
173;SDS011;75;48.784;9.364;2022-09-09T11:57:20;12.93;;;2.90;;
173;SDS011;75;48.784;9.364;2022-09-09T11:59:52;8.40;;;2.80;;
173;SDS011;75;48.784;9.364;2022-09-09T12:02:19;8.60;;;2.80;;
173;SDS011;75;48.784;9.364;2022-09-09T12:04:54;7.50;;;3.10;;
173;SDS011;75;48.784;9.364;2022-09-09T12:07:47;4.40;;;2.97;;
173;SDS011;75;48.784;9.364;2022-09-09T12:10:39;5.43;;;3.07;;
173;SDS011;75;48.784;9.364;2022-09-09T12:13:18;8.00;;;2.50;;
173;SDS011;75;48.784;9.364;2022-09-09T12:15:55;5.53;;;2.50;;
173;SDS011;75;48.784;9.364;2022-09-09T12:18:23;6.77;;;2.50;;
173;SDS011;75;48.784;9.364;2022-09-09T12:23:52;3.57;;;1.90;;
173;SDS011;75;48.784;9.364;2022-09-09T12:29:02;4.47;;;2.10;;
173;SDS011;75;48.784;9.364;2022-09-09T12:34:42;3.10;;;1.70;;
173;SDS011;75;48.784;9.364;2022-09-09T12:40:00;5.03;;;1.63;;
173;SDS011;75;48.784;9.364;2022-09-09T12:42:29;2.40;;;1.60;;
173;SDS011;75;48.784;9.364;2022-09-09T12:45:02;6.50;;;1.80;;
173;SDS011;75;48.784;9.364;2022-09-09T12:47:49;3.10;;;1.63;;
173;SDS011;75;48.784;9.364;2022-09-09T12:50:23;3.20;;;1.60;;
173;SDS011;75;48.784;9.364;2022-09-09T12:52:52;3.70;;;1.77;;
173;SDS011;75;48.784;9.364;2022-09-09T12:55:24;4.73;;;1.60;;
173;SDS011;75;48.784;9.364;2022-09-09T12:57:55;4.87;;;1.50;;
173;SDS011;75;48.784;9.364;2022-09-09T13:00:22;2.47;;;1.50;;
173;SDS011;75;48.784;9.364;2022-09-09T13:05:23;2.73;;;1.70;;
173;SDS011;75;48.784;9.364;2022-09-09T13:08:00;3.73;;;1.70;;
173;SDS011;75;48.784;9.364;2022-09-09T13:10:28;2.90;;;1.63;;
173;SDS011;75;48.784;9.364;2022-09-09T13:12:57;3.43;;;1.70;;
173;SDS011;75;48.784;9.364;2022-09-09T13:15:24;4.20;;;1.83;;
173;SDS011;75;48.784;9.364;2022-09-09T13:17:53;2.20;;;1.60;;
173;SDS011;75;48.784;9.364;2022-09-09T13:20:25;4.07;;;1.70;;
173;SDS011;75;48.784;9.364;2022-09-09T13:22:52;6.90;;;1.83;;
173;SDS011;75;48.784;9.364;2022-09-09T13:25:24;2.77;;;1.90;;
173;SDS011;75;48.784;9.364;2022-09-09T13:28:01;2.73;;;1.60;;
173;SDS011;75;48.784;9.364;2022-09-09T13:30:33;6.93;;;2.30;;
173;SDS011;75;48.784;9.364;2022-09-09T13:35:32;3.83;;;1.70;;
173;SDS011;75;48.784;9.364;2022-09-09T13:37:58;2.47;;;1.50;;
173;SDS011;75;48.784;9.364;2022-09-09T13:40:32;7.03;;;1.70;;
173;SDS011;75;48.784;9.364;2022-09-09T13:42:59;4.03;;;1.70;;
173;SDS011;75;48.784;9.364;2022-09-09T13:45:25;3.97;;;1.60;;
173;SDS011;75;48.784;9.364;2022-09-09T13:47:54;4.20;;;1.70;;
173;SDS011;75;48.784;9.364;2022-09-09T13:52:51;3.20;;;1.60;;
173;SDS011;75;48.784;9.364;2022-09-09T13:55:19;2.20;;;1.43;;
173;SDS011;75;48.784;9.364;2022-09-09T13:57:53;2.90;;;1.63;;
173;SDS011;75;48.784;9.364;2022-09-09T14:00:20;3.33;;;1.70;;
173;SDS011;75;48.784;9.364;2022-09-09T14:02:49;3.70;;;1.70;;
173;SDS011;75;48.784;9.364;2022-09-09T14:05:15;3.20;;;1.80;;
173;SDS011;75;48.784;9.364;2022-09-09T14:07:42;5.13;;;1.80;;
173;SDS011;75;48.784;9.364;2022-09-09T14:10:09;5.10;;;2.00;;
173;SDS011;75;48.784;9.364;2022-09-09T14:12:36;2.93;;;1.60;;
173;SDS011;75;48.784;9.364;2022-09-09T14:15:03;3.27;;;1.80;;
173;SDS011;75;48.784;9.364;2022-09-09T14:17:30;2.50;;;1.53;;
173;SDS011;75;48.784;9.364;2022-09-09T14:19:56;2.83;;;1.70;;
173;SDS011;75;48.784;9.364;2022-09-09T14:22:22;3.37;;;1.70;;
173;SDS011;75;48.784;9.364;2022-09-09T14:24:49;5.80;;;1.80;;
173;SDS011;75;48.784;9.364;2022-09-09T14:27:16;4.20;;;2.00;;
173;SDS011;75;48.784;9.364;2022-09-09T14:29:42;3.50;;;1.73;;
173;SDS011;75;48.784;9.364;2022-09-09T14:32:09;4.03;;;1.60;;
173;SDS011;75;48.784;9.364;2022-09-09T14:34:35;2.73;;;1.57;;
173;SDS011;75;48.784;9.364;2022-09-09T14:37:01;3.77;;;1.80;;
173;SDS011;75;48.784;9.364;2022-09-09T14:39:26;3.40;;;1.77;;
173;SDS011;75;48.784;9.364;2022-09-09T14:41:52;3.97;;;1.60;;
173;SDS011;75;48.784;9.364;2022-09-09T14:44:18;4.83;;;1.60;;
173;SDS011;75;48.784;9.364;2022-09-09T14:46:43;3.53;;;1.70;;
173;SDS011;75;48.784;9.364;2022-09-09T14:49:09;5.60;;;1.77;;
173;SDS011;75;48.784;9.364;2022-09-09T14:51:35;6.60;;;1.90;;
173;SDS011;75;48.784;9.364;2022-09-09T14:54:01;3.47;;;1.60;;
173;SDS011;75;48.784;9.364;2022-09-09T14:56:28;3.03;;;1.70;;
173;SDS011;75;48.784;9.364;2022-09-09T14:58:56;2.33;;;1.57;;
173;SDS011;75;48.784;9.364;2022-09-09T15:01:23;2.50;;;1.60;;
173;SDS011;75;48.784;9.364;2022-09-09T15:03:58;3.73;;;1.70;;
173;SDS011;75;48.784;9.364;2022-09-09T15:06:27;3.33;;;1.60;;
173;SDS011;75;48.784;9.364;2022-09-09T15:08:55;3.33;;;1.70;;
173;SDS011;75;48.784;9.364;2022-09-09T15:11:25;5.07;;;1.70;;
173;SDS011;75;48.784;9.364;2022-09-09T15:13:52;2.93;;;1.60;;
173;SDS011;75;48.784;9.364;2022-09-09T15:16:20;4.37;;;1.70;;
173;SDS011;75;48.784;9.364;2022-09-09T15:18:49;3.33;;;1.70;;
173;SDS011;75;48.784;9.364;2022-09-09T15:21:17;6.43;;;1.77;;
173;SDS011;75;48.784;9.364;2022-09-09T15:23:45;3.33;;;1.77;;
173;SDS011;75;48.784;9.364;2022-09-09T15:26:10;4.53;;;1.70;;
173;SDS011;75;48.784;9.364;2022-09-09T15:28:39;3.17;;;1.50;;
173;SDS011;75;48.784;9.364;2022-09-09T15:31:06;3.60;;;1.90;;
173;SDS011;75;48.784;9.364;2022-09-09T15:33:34;5.03;;;1.80;;
173;SDS011;75;48.784;9.364;2022-09-09T15:36:23;4.47;;;1.93;;
173;SDS011;75;48.784;9.364;2022-09-09T15:38:49;3.10;;;1.80;;
173;SDS011;75;48.784;9.364;2022-09-09T15:41:15;3.70;;;2.10;;
173;SDS011;75;48.784;9.364;2022-09-09T15:43:43;3.40;;;1.70;;
173;SDS011;75;48.784;9.364;2022-09-09T15:48:43;3.53;;;1.80;;
173;SDS011;75;48.784;9.364;2022-09-09T15:51:09;2.63;;;1.57;;
173;SDS011;75;48.784;9.364;2022-09-09T15:53:36;4.07;;;2.00;;
173;SDS011;75;48.784;9.364;2022-09-09T15:56:04;4.90;;;1.87;;
173;SDS011;75;48.784;9.364;2022-09-09T15:58:31;4.30;;;1.80;;
173;SDS011;75;48.784;9.364;2022-09-09T16:01:07;4.93;;;2.00;;
173;SDS011;75;48.784;9.364;2022-09-09T16:03:34;4.70;;;1.90;;
173;SDS011;75;48.784;9.364;2022-09-09T16:06:01;3.73;;;1.80;;
173;SDS011;75;48.784;9.364;2022-09-09T16:08:37;4.67;;;1.83;;
173;SDS011;75;48.784;9.364;2022-09-09T16:11:08;3.23;;;2.10;;
173;SDS011;75;48.784;9.364;2022-09-09T16:13:37;3.10;;;1.80;;
173;SDS011;75;48.784;9.364;2022-09-09T16:16:06;3.20;;;1.83;;
173;SDS011;75;48.784;9.364;2022-09-09T16:18:35;3.13;;;1.87;;
173;SDS011;75;48.784;9.364;2022-09-09T16:21:01;6.20;;;1.97;;
173;SDS011;75;48.784;9.364;2022-09-09T16:23:28;5.40;;;1.80;;
173;SDS011;75;48.784;9.364;2022-09-09T16:25:54;5.00;;;1.90;;
173;SDS011;75;48.784;9.364;2022-09-09T16:28:20;4.40;;;2.00;;
173;SDS011;75;48.784;9.364;2022-09-09T16:30:46;3.10;;;1.67;;
173;SDS011;75;48.784;9.364;2022-09-09T16:33:11;4.97;;;1.87;;
173;SDS011;75;48.784;9.364;2022-09-09T16:35:40;5.03;;;1.80;;
173;SDS011;75;48.784;9.364;2022-09-09T16:38:05;4.30;;;1.80;;
173;SDS011;75;48.784;9.364;2022-09-09T16:40:35;3.83;;;1.70;;
173;SDS011;75;48.784;9.364;2022-09-09T16:43:02;2.90;;;1.67;;
173;SDS011;75;48.784;9.364;2022-09-09T16:45:31;3.70;;;1.70;;
173;SDS011;75;48.784;9.364;2022-09-09T16:47:58;4.40;;;1.97;;
173;SDS011;75;48.784;9.364;2022-09-09T16:50:25;5.60;;;2.10;;
173;SDS011;75;48.784;9.364;2022-09-09T16:52:51;3.37;;;1.70;;
173;SDS011;75;48.784;9.364;2022-09-09T16:55:17;4.63;;;1.90;;
173;SDS011;75;48.784;9.364;2022-09-09T16:57:45;4.53;;;2.20;;
173;SDS011;75;48.784;9.364;2022-09-09T17:00:14;3.40;;;2.10;;
173;SDS011;75;48.784;9.364;2022-09-09T17:02:41;5.53;;;2.13;;
173;SDS011;75;48.784;9.364;2022-09-09T17:05:08;3.50;;;1.60;;
173;SDS011;75;48.784;9.364;2022-09-09T17:07:34;5.67;;;1.80;;
173;SDS011;75;48.784;9.364;2022-09-09T17:10:00;3.13;;;1.60;;
173;SDS011;75;48.784;9.364;2022-09-09T17:12:26;2.83;;;1.73;;
173;SDS011;75;48.784;9.364;2022-09-09T17:14:52;3.03;;;1.70;;
173;SDS011;75;48.784;9.364;2022-09-09T17:17:20;2.23;;;1.50;;
173;SDS011;75;48.784;9.364;2022-09-09T17:19:46;2.40;;;1.50;;
173;SDS011;75;48.784;9.364;2022-09-09T17:22:12;2.13;;;1.50;;
173;SDS011;75;48.784;9.364;2022-09-09T17:24:37;3.20;;;1.60;;
173;SDS011;75;48.784;9.364;2022-09-09T17:27:04;3.77;;;2.10;;
173;SDS011;75;48.784;9.364;2022-09-09T17:29:29;2.60;;;1.50;;
173;SDS011;75;48.784;9.364;2022-09-09T17:31:55;2.60;;;1.40;;
173;SDS011;75;48.784;9.364;2022-09-09T17:34:21;5.97;;;2.43;;
173;SDS011;75;48.784;9.364;2022-09-09T17:36:47;3.10;;;1.60;;
173;SDS011;75;48.784;9.364;2022-09-09T17:39:13;3.73;;;2.37;;
173;SDS011;75;48.784;9.364;2022-09-09T17:41:39;2.93;;;1.70;;
173;SDS011;75;48.784;9.364;2022-09-09T17:44:05;2.53;;;1.50;;
173;SDS011;75;48.784;9.364;2022-09-09T17:46:33;2.57;;;1.60;;
173;SDS011;75;48.784;9.364;2022-09-09T17:49:04;3.43;;;1.60;;
173;SDS011;75;48.784;9.364;2022-09-09T17:51:35;3.13;;;1.57;;
173;SDS011;75;48.784;9.364;2022-09-09T17:54:05;2.43;;;1.50;;
173;SDS011;75;48.784;9.364;2022-09-09T17:56:35;2.50;;;1.50;;
173;SDS011;75;48.784;9.364;2022-09-09T17:59:03;2.90;;;1.87;;
173;SDS011;75;48.784;9.364;2022-09-09T18:01:32;2.40;;;1.50;;
173;SDS011;75;48.784;9.364;2022-09-09T18:04:00;2.57;;;1.60;;
173;SDS011;75;48.784;9.364;2022-09-09T18:06:29;2.83;;;1.60;;
173;SDS011;75;48.784;9.364;2022-09-09T18:09:02;2.27;;;1.50;;
173;SDS011;75;48.784;9.364;2022-09-09T18:11:34;3.43;;;1.67;;
173;SDS011;75;48.784;9.364;2022-09-09T18:14:06;3.23;;;1.60;;
173;SDS011;75;48.784;9.364;2022-09-09T18:16:35;5.00;;;1.90;;
173;SDS011;75;48.784;9.364;2022-09-09T18:19:04;4.00;;;2.40;;
173;SDS011;75;48.784;9.364;2022-09-09T18:21:33;3.03;;;2.00;;
173;SDS011;75;48.784;9.364;2022-09-09T18:24:00;3.70;;;2.13;;
173;SDS011;75;48.784;9.364;2022-09-09T18:26:28;4.20;;;2.20;;
173;SDS011;75;48.784;9.364;2022-09-09T18:28:57;2.53;;;1.40;;
173;SDS011;75;48.784;9.364;2022-09-09T18:31:26;11.30;;;2.10;;